Portada
METAR-TAF:

METAR-TAF

Aeropuertos :

Aeropuerto Internacional Viru Viru

Viru-Viru, Bolivia

latitud: 17-38S, longitud: 063-08W, altitud: 373 m

Observación

El informe se hizo hace 25 minutos, a las 03:00 UTC
Viento 5 kt del noroeste
Temperatura 18°C
Humedad 83%
Presión 1017 hPa
Visibilidad 10 km o más

METAR: SLVR 200300Z 32005KT 9999 NSC 18/15 Q1017

Hora: 23:25 (03:25 UTC)

Pronóstico

El informe se hizo hace 5 horas y 5 minutos, a las 22:20 UTC
Pronóstico válido del 20 a las 00 UTC al 20 a las 24 UTC
Viento 7 kt del norte-noroeste
Visibilidad 10 km o más
Temporalmente
del 20 a las 09 UTC al 20 a las 11 UTC
Viento 2 kt con dirección variable
Nubes dispersas a una altura de 7000 ft
Evolucionando progresivamente
del 20 a las 15 UTC al 20 a las 18 UTC
Viento 12 kt del norte-noroeste

TAF: SLVR 192220Z 2000/2024 34007KT 9999 NSC TX29/2020Z TN15/2010Z TEMPO 2009/2011 VRB02KT SCT070 BECMG 2015/2018 34012KT NSC

Observaciones y pronósticos meteorológicos de más de 4000 aeropuertos (mensajes METAR y TAF).

Los puntos amarillos y rojos representan las estaciones disponibles.

Ponga el ratón en el punto deseado para ver el nombre de la estación.

Haga clic para ver las observaciones y los pronósticos meteorológicos.

Para cambiar el mapa : haga clic en los botones verdes con una cruz de color negro para hacer un zoom, en el botón verde con un guión para alejar o en las flechas verdes para mapas adyacentes.


METAR-TAF: